createdAt,value
2022-08-19T00:02:50.145Z,1.70
2022-08-19T00:05:32.612Z,1.88
2022-08-19T00:08:20.690Z,1.90
2022-08-19T00:11:02.027Z,1.83
2022-08-19T00:13:48.495Z,1.73
2022-08-19T00:16:35.666Z,1.50
2022-08-19T00:19:17.570Z,2.15
2022-08-19T00:22:09.784Z,1.77
2022-08-19T00:24:54.903Z,1.98
2022-08-19T00:27:41.619Z,2.15
2022-08-19T00:30:22.925Z,2.30
2022-08-19T00:33:11.158Z,2.00
2022-08-19T00:35:56.106Z,1.60
2022-08-19T00:38:47.470Z,1.60
2022-08-19T00:41:30.882Z,1.55
2022-08-19T00:44:21.018Z,1.73
2022-08-19T00:47:06.799Z,1.73
2022-08-19T00:50:04.676Z,2.00
2022-08-19T00:52:52.819Z,1.80
2022-08-19T00:55:42.502Z,1.70
2022-08-19T00:58:29.244Z,1.60
2022-08-19T01:01:17.762Z,1.48
2022-08-19T01:03:58.880Z,1.80
2022-08-19T01:06:48.907Z,1.98
2022-08-19T01:09:30.635Z,2.50
2022-08-19T01:12:17.634Z,2.40
2022-08-19T01:15:13.606Z,2.88
2022-08-19T01:18:02.031Z,2.30
2022-08-19T01:20:43.548Z,2.08
2022-08-19T01:23:43.911Z,1.80
2022-08-19T01:26:27.908Z,1.77
2022-08-19T01:29:15.125Z,1.88
2022-08-19T01:31:59.932Z,1.95
2022-08-19T01:34:48.659Z,1.70
2022-08-19T01:37:31.738Z,1.88
2022-08-19T01:40:21.321Z,1.90
2022-08-19T01:43:02.600Z,1.75
2022-08-19T01:45:52.059Z,2.15
2022-08-19T01:48:32.972Z,1.90
2022-08-19T01:51:21.493Z,2.10
2022-08-19T01:54:05.351Z,2.13
2022-08-19T01:56:52.918Z,1.52
2022-08-19T01:59:34.302Z,1.67
2022-08-19T02:02:22.694Z,2.40
2022-08-19T02:05:04.587Z,1.90
2022-08-19T02:07:54.719Z,2.08
2022-08-19T02:10:36.701Z,2.13
2022-08-19T02:13:26.284Z,2.30
2022-08-19T02:16:24.790Z,2.13
2022-08-19T02:19:11.679Z,1.85
2022-08-19T02:21:52.801Z,2.33
2022-08-19T02:24:40.475Z,2.17
2022-08-19T02:27:24.648Z,1.75
2022-08-19T02:30:14.027Z,2.25
2022-08-19T02:32:55.945Z,1.80
2022-08-19T02:35:44.495Z,2.20
2022-08-19T02:38:34.679Z,2.05
2022-08-19T02:41:33.726Z,2.17
2022-08-19T02:44:30.313Z,1.95
2022-08-19T02:47:19.871Z,2.03
2022-08-19T02:50:00.690Z,1.95
2022-08-19T02:52:48.805Z,2.10
2022-08-19T02:55:30.014Z,1.83
2022-08-19T02:58:18.474Z,1.73
2022-08-19T03:01:04.349Z,1.63
2022-08-19T03:03:52.736Z,1.63
2022-08-19T03:06:35.268Z,1.55
2022-08-19T03:09:24.747Z,1.88
2022-08-19T03:12:06.611Z,1.63
2022-08-19T03:15:00.614Z,1.85
2022-08-19T03:17:48.060Z,1.98
2022-08-19T03:20:31.023Z,1.80
2022-08-19T03:23:22.708Z,1.70
2022-08-19T03:26:16.381Z,1.80
2022-08-19T03:29:05.837Z,1.88
2022-08-19T03:31:52.461Z,1.70
2022-08-19T03:34:44.659Z,1.75
2022-08-19T03:37:27.050Z,1.45
2022-08-19T03:40:16.702Z,1.50
2022-08-19T03:42:57.808Z,1.60
2022-08-19T03:45:46.047Z,1.55
2022-08-19T03:48:26.724Z,2.10
2022-08-19T03:51:30.592Z,1.45
2022-08-19T03:54:15.775Z,1.63
2022-08-19T03:57:04.643Z,1.40
2022-08-19T03:59:46.832Z,2.00
2022-08-19T04:02:36.009Z,1.65
2022-08-19T04:05:16.887Z,1.73
2022-08-19T04:08:08.661Z,2.20
2022-08-19T04:10:52.756Z,2.05
2022-08-19T04:13:42.290Z,1.90
2022-08-19T04:16:35.161Z,1.70
2022-08-19T04:19:16.772Z,2.38
2022-08-19T04:22:05.761Z,2.13
2022-08-19T04:24:46.869Z,2.10
2022-08-19T04:27:36.201Z,2.05
2022-08-19T04:30:19.395Z,2.13
2022-08-19T04:33:06.992Z,2.10
2022-08-19T04:35:50.019Z,2.10
2022-08-19T04:38:40.815Z,2.40
2022-08-19T04:41:40.696Z,2.03
2022-08-19T04:44:33.214Z,2.10
2022-08-19T04:47:16.438Z,2.60
2022-08-19T04:50:24.195Z,2.40
2022-08-19T04:53:04.675Z,2.53
2022-08-19T04:55:52.840Z,2.67
2022-08-19T04:58:35.929Z,2.10
2022-08-19T05:01:30.983Z,2.15
2022-08-19T05:04:14.679Z,2.28
2022-08-19T05:07:02.226Z,2.70
2022-08-19T05:09:57.570Z,2.28
2022-08-19T05:12:48.913Z,2.20
2022-08-19T05:15:43.966Z,2.55
2022-08-19T05:18:50.397Z,2.75
2022-08-19T05:21:49.703Z,2.38
2022-08-19T05:24:51.207Z,2.30
2022-08-19T05:27:39.761Z,2.47
2022-08-19T05:30:46.090Z,2.72
2022-08-19T05:33:28.540Z,2.53
2022-08-19T05:36:21.022Z,2.58
2022-08-19T05:39:02.706Z,2.55
2022-08-19T05:41:53.748Z,2.40
2022-08-19T05:44:40.704Z,2.60
2022-08-19T05:47:29.925Z,2.47
2022-08-19T05:50:12.722Z,2.45
2022-08-19T05:53:00.807Z,2.33
2022-08-19T05:55:44.281Z,2.20
2022-08-19T05:58:31.948Z,2.53
2022-08-19T06:01:18.782Z,2.40
2022-08-19T06:04:07.452Z,2.70
2022-08-19T06:07:12.323Z,2.80
2022-08-19T06:09:59.035Z,2.70
2022-08-19T06:12:49.095Z,2.80
2022-08-19T06:15:43.698Z,2.60
2022-08-19T06:18:33.742Z,2.60
2022-08-19T06:21:15.324Z,2.70
2022-08-19T06:24:06.464Z,2.42
2022-08-19T06:26:51.525Z,2.53
2022-08-19T06:29:42.661Z,2.50
2022-08-19T06:32:26.715Z,2.97
2022-08-19T06:35:16.931Z,2.50
2022-08-19T06:37:58.890Z,3.25
2022-08-19T06:40:46.769Z,2.63
2022-08-19T06:43:29.161Z,2.75
2022-08-19T06:46:22.241Z,2.80
2022-08-19T06:49:05.018Z,2.53
2022-08-19T06:51:56.289Z,2.97
2022-08-19T06:54:55.445Z,2.50
2022-08-19T06:57:47.541Z,2.80
2022-08-19T07:00:28.948Z,2.60
2022-08-19T07:03:16.170Z,2.83
2022-08-19T07:05:58.006Z,2.60
2022-08-19T07:08:49.215Z,2.80
2022-08-19T07:11:30.081Z,3.00
2022-08-19T07:14:19.998Z,2.67
2022-08-19T07:17:07.868Z,3.10
2022-08-19T07:19:51.363Z,3.65
2022-08-19T07:22:41.934Z,2.97
2022-08-19T07:25:32.381Z,3.20
2022-08-19T07:28:24.656Z,3.30
2022-08-19T07:31:23.809Z,3.28
2022-08-19T07:34:17.339Z,2.83
2022-08-19T07:37:02.234Z,3.00
2022-08-19T07:39:51.415Z,3.33
2022-08-19T07:42:35.290Z,3.15
2022-08-19T07:45:25.530Z,2.90
2022-08-19T07:48:09.524Z,2.80
2022-08-19T07:51:06.892Z,3.13
2022-08-19T07:53:52.224Z,3.00
2022-08-19T07:56:41.166Z,2.97
2022-08-19T07:59:33.440Z,3.10
2022-08-19T08:02:29.196Z,3.35
2022-08-19T08:05:35.766Z,3.20
2022-08-19T08:08:27.779Z,3.72
2022-08-19T08:11:15.519Z,3.30
2022-08-19T08:14:06.041Z,3.00
2022-08-19T08:17:10.951Z,2.75
2022-08-19T08:20:02.362Z,2.70
2022-08-19T08:23:15.450Z,2.58
2022-08-19T08:26:05.786Z,2.55
2022-08-19T08:28:48.098Z,2.30
2022-08-19T08:31:38.946Z,2.70
2022-08-19T08:34:21.788Z,2.60
2022-08-19T08:37:13.455Z,2.30
2022-08-19T08:39:58.874Z,2.40
2022-08-19T08:43:05.622Z,2.40
2022-08-19T08:46:07.621Z,2.55
2022-08-19T08:49:01.934Z,2.65
2022-08-19T08:52:00.052Z,2.47
2022-08-19T08:54:55.402Z,2.17
2022-08-19T08:57:43.406Z,2.22
2022-08-19T09:00:33.619Z,2.83
2022-08-19T09:03:31.510Z,2.20
2022-08-19T09:06:21.943Z,2.50
2022-08-19T09:09:28.960Z,1.90
2022-08-19T09:12:35.286Z,2.15
2022-08-19T09:15:19.820Z,2.00
2022-08-19T09:18:19.293Z,2.17
2022-08-19T09:21:01.284Z,2.60
2022-08-19T09:23:51.042Z,2.30
2022-08-19T09:26:47.440Z,2.00
2022-08-19T09:29:40.960Z,2.40
2022-08-19T09:32:26.896Z,2.22
2022-08-19T09:35:15.071Z,2.08
2022-08-19T09:37:59.406Z,2.00
2022-08-19T09:40:53.699Z,2.10
2022-08-19T09:43:44.541Z,2.33
2022-08-19T09:46:41.313Z,2.47
2022-08-19T09:49:31.606Z,2.03
2022-08-19T09:52:23.903Z,2.13
2022-08-19T09:55:13.459Z,1.85
2022-08-19T09:58:03.348Z,1.90
2022-08-19T10:00:51.547Z,2.00
2022-08-19T10:03:42.106Z,1.83
2022-08-19T10:06:43.998Z,1.65
2022-08-19T10:09:35.665Z,1.67
2022-08-19T10:12:20.550Z,1.88
2022-08-19T10:15:14.121Z,1.50
2022-08-19T10:18:02.022Z,1.40
2022-08-19T10:20:43.461Z,1.73
2022-08-19T10:23:33.577Z,1.45
2022-08-19T10:26:16.147Z,1.63
2022-08-19T10:29:05.934Z,1.63
2022-08-19T10:32:01.116Z,1.80
2022-08-19T10:34:53.055Z,1.70
2022-08-19T10:37:46.304Z,1.63
2022-08-19T10:40:52.576Z,1.50
2022-08-19T10:43:47.816Z,1.20
2022-08-19T10:46:49.367Z,1.50
2022-08-19T10:49:33.784Z,1.65
2022-08-19T10:52:49.014Z,1.48
2022-08-19T10:55:53.824Z,1.38
2022-08-19T10:58:45.362Z,2.45
2022-08-19T11:01:32.400Z,1.23
2022-08-19T11:04:29.608Z,1.45
2022-08-19T11:07:17.920Z,1.20
2022-08-19T11:10:11.486Z,1.20
2022-08-19T11:12:57.112Z,1.48
2022-08-19T11:15:56.937Z,1.30
2022-08-19T11:18:49.807Z,1.42
2022-08-19T11:21:37.252Z,1.35
2022-08-19T11:27:18.957Z,1.10
2022-08-19T11:30:15.256Z,1.25
2022-08-19T11:33:00.981Z,1.20
2022-08-19T11:35:52.355Z,0.88
2022-08-19T11:38:37.941Z,0.80
2022-08-19T11:41:33.652Z,1.15
2022-08-19T11:44:20.823Z,0.80
2022-08-19T11:47:09.444Z,0.77
2022-08-19T11:49:54.103Z,0.95
2022-08-19T11:52:55.015Z,0.80
2022-08-19T11:55:36.223Z,0.80
2022-08-19T11:58:33.657Z,0.75
2022-08-19T12:01:24.517Z,0.82
2022-08-19T12:04:13.987Z,0.82
2022-08-19T12:06:59.701Z,1.13
2022-08-19T12:09:49.590Z,1.00
2022-08-19T12:12:38.803Z,0.85
2022-08-19T12:15:39.647Z,0.60
2022-08-19T12:21:18.085Z,0.88
2022-08-19T12:24:12.886Z,0.82
2022-08-19T12:27:00.956Z,1.25
2022-08-19T12:29:57.584Z,0.90
2022-08-19T12:32:39.462Z,1.13
2022-08-19T12:35:33.612Z,0.90
2022-08-19T12:38:19.751Z,0.77
2022-08-19T12:41:17.530Z,0.68
2022-08-19T12:44:04.524Z,0.70
2022-08-19T12:46:58.942Z,0.88
2022-08-19T12:49:58.867Z,0.70
2022-08-19T12:52:53.871Z,0.90
2022-08-19T12:55:38.803Z,1.13
2022-08-19T12:58:29.219Z,1.13
2022-08-19T13:01:17.741Z,1.05
2022-08-19T13:04:17.130Z,1.15
2022-08-19T13:07:05.551Z,1.00
2022-08-19T13:09:57.077Z,0.90
2022-08-19T13:12:51.624Z,0.80
2022-08-19T13:15:50.290Z,1.00
2022-08-19T13:18:43.261Z,1.02
2022-08-19T13:21:30.166Z,0.73
2022-08-19T13:24:19.676Z,0.90
2022-08-19T13:27:04.631Z,1.00
2022-08-19T13:30:10.887Z,1.00
2022-08-19T13:33:15.585Z,0.82
2022-08-19T13:39:08.316Z,0.93
2022-08-19T13:42:03.031Z,1.10
2022-08-19T13:44:58.171Z,1.60
2022-08-19T13:47:50.305Z,1.05
2022-08-19T13:50:39.705Z,1.27
2022-08-19T13:53:28.083Z,1.60
2022-08-19T13:56:14.505Z,1.00
2022-08-19T13:59:01.375Z,0.70
2022-08-19T14:01:45.381Z,0.50
2022-08-19T14:04:35.123Z,0.70
2022-08-19T14:07:17.012Z,0.30
2022-08-19T14:10:05.473Z,0.28
2022-08-19T14:12:48.620Z,0.32
2022-08-19T14:15:36.175Z,0.20
2022-08-19T14:18:25.996Z,0.30
2022-08-19T14:21:09.867Z,0.38
2022-08-19T14:23:58.031Z,0.60
2022-08-19T14:26:39.575Z,1.15
2022-08-19T14:29:27.143Z,0.60
2022-08-19T14:32:11.502Z,0.60
2022-08-19T14:35:03.521Z,0.73
2022-08-19T14:37:45.817Z,0.57
2022-08-19T14:40:37.731Z,0.57
2022-08-19T14:43:19.214Z,0.75
2022-08-19T14:46:10.561Z,0.70
2022-08-19T14:48:52.580Z,0.30
2022-08-19T14:51:42.334Z,0.30
2022-08-19T14:54:23.221Z,0.70
2022-08-19T14:57:13.120Z,0.28
2022-08-19T14:59:54.314Z,0.43
2022-08-19T15:02:41.078Z,0.45
2022-08-19T15:05:22.278Z,0.57
2022-08-19T15:08:12.155Z,1.42
2022-08-19T15:10:53.460Z,0.50
2022-08-19T15:13:40.424Z,0.60
2022-08-19T15:16:37.024Z,0.63
2022-08-19T15:19:35.423Z,0.60
2022-08-19T15:22:23.163Z,0.80
2022-08-19T15:25:04.031Z,0.80
2022-08-19T15:27:54.223Z,1.05
2022-08-19T15:30:36.199Z,0.93
2022-08-19T15:33:24.144Z,2.03
2022-08-19T15:36:05.184Z,1.30
2022-08-19T15:38:53.255Z,1.10
2022-08-19T15:41:37.240Z,1.40
2022-08-19T15:44:26.179Z,1.30
2022-08-19T15:47:07.050Z,1.38
2022-08-19T15:50:00.552Z,1.77
2022-08-19T15:52:49.547Z,1.35
2022-08-19T15:55:42.184Z,1.80
2022-08-19T15:58:44.044Z,1.50
2022-08-19T16:01:50.869Z,1.50
2022-08-19T16:04:51.059Z,1.38
2022-08-19T16:07:38.239Z,1.40
2022-08-19T16:10:27.147Z,1.63
2022-08-19T16:13:18.644Z,1.83
2022-08-19T16:16:03.487Z,1.70
2022-08-19T16:18:53.686Z,1.45
2022-08-19T16:21:41.516Z,1.52
2022-08-19T16:24:34.899Z,2.10
2022-08-19T16:27:16.887Z,1.83
2022-08-19T16:30:04.187Z,2.03
2022-08-19T16:32:50.103Z,1.90
2022-08-19T16:35:40.084Z,1.65
2022-08-19T16:38:23.082Z,2.40
2022-08-19T16:41:14.384Z,1.70
2022-08-19T16:44:01.231Z,1.75
2022-08-19T16:46:58.984Z,1.85
2022-08-19T16:49:53.358Z,1.50
2022-08-19T16:52:42.886Z,1.35
2022-08-19T16:55:25.815Z,1.60
2022-08-19T16:58:14.781Z,1.50
2022-08-19T17:00:59.585Z,1.90
2022-08-19T17:06:37.529Z,1.77
2022-08-19T17:12:13.117Z,1.83
2022-08-19T17:15:01.215Z,1.58
2022-08-19T17:17:58.218Z,1.80
2022-08-19T17:20:49.591Z,1.70
2022-08-19T17:23:42.970Z,1.15
2022-08-19T17:26:34.251Z,1.83
2022-08-19T17:29:16.106Z,1.63
2022-08-19T17:32:03.319Z,1.70
2022-08-19T17:34:45.194Z,1.77
2022-08-19T17:37:32.248Z,2.42
2022-08-19T17:40:15.565Z,1.95
2022-08-19T17:43:10.050Z,1.92
2022-08-19T17:45:51.266Z,2.13
2022-08-19T17:48:40.308Z,1.70
2022-08-19T17:54:33.783Z,1.40
2022-08-19T17:57:15.532Z,1.50
2022-08-19T18:00:06.181Z,1.77
2022-08-19T18:03:02.118Z,1.77
2022-08-19T18:05:53.571Z,2.00
2022-08-19T18:08:34.867Z,1.98
2022-08-19T18:11:23.246Z,1.75
2022-08-19T18:14:04.534Z,2.15
2022-08-19T18:17:02.134Z,2.50
2022-08-19T18:19:50.505Z,2.22
2022-08-19T18:22:37.314Z,1.52
2022-08-19T18:25:32.174Z,2.35
2022-08-19T18:28:14.159Z,1.90
2022-08-19T18:31:03.164Z,2.60
2022-08-19T18:33:44.616Z,2.08
2022-08-19T18:36:53.015Z,2.33
2022-08-19T18:40:02.987Z,1.90
2022-08-19T18:43:12.161Z,1.95
2022-08-19T18:46:13.234Z,1.50
2022-08-19T18:49:16.872Z,1.90
2022-08-19T18:51:57.643Z,2.15
2022-08-19T18:54:47.546Z,2.30
2022-08-19T18:57:28.269Z,2.05
2022-08-19T19:00:17.526Z,2.60
2022-08-19T19:02:58.415Z,2.50
2022-08-19T19:05:47.155Z,3.35
2022-08-19T19:08:28.280Z,3.28
2022-08-19T19:11:15.549Z,4.05
2022-08-19T19:13:56.322Z,5.50
2022-08-19T19:16:52.547Z,5.55
2022-08-19T19:19:42.723Z,4.05
2022-08-19T19:22:26.196Z,3.72
2022-08-19T19:25:14.062Z,2.95
2022-08-19T19:27:56.107Z,2.47
2022-08-19T19:30:43.338Z,2.20
2022-08-19T19:33:24.550Z,3.47
2022-08-19T19:36:12.830Z,2.70
2022-08-19T19:38:53.209Z,3.63
2022-08-19T19:41:43.342Z,4.15
2022-08-19T19:44:30.495Z,2.60
2022-08-19T19:47:24.692Z,2.40
2022-08-19T19:50:15.233Z,3.03
2022-08-19T19:53:04.325Z,3.20
2022-08-19T19:55:49.405Z,4.00
2022-08-19T19:58:41.811Z,3.53
2022-08-19T20:01:24.714Z,3.38
2022-08-19T20:04:13.321Z,3.30
2022-08-19T20:06:55.546Z,3.25
2022-08-19T20:09:59.395Z,3.15
2022-08-19T20:12:42.595Z,2.90
2022-08-19T20:15:31.431Z,2.60
2022-08-19T20:18:23.598Z,3.10
2022-08-19T20:21:07.370Z,2.33
2022-08-19T20:24:09.301Z,2.10
2022-08-19T20:26:53.416Z,2.58
2022-08-19T20:29:46.015Z,2.42
2022-08-19T20:32:28.087Z,2.13
2022-08-19T20:35:18.346Z,2.60
2022-08-19T20:38:00.717Z,2.20
2022-08-19T20:40:48.228Z,2.15
2022-08-19T20:43:29.568Z,2.78
2022-08-19T20:46:17.254Z,2.05
2022-08-19T20:48:59.100Z,2.60
2022-08-19T20:51:50.463Z,2.40
2022-08-19T20:54:36.292Z,2.22
2022-08-19T20:57:24.250Z,2.15
2022-08-19T21:00:07.282Z,2.03
2022-08-19T21:02:57.528Z,2.72
2022-08-19T21:05:38.796Z,2.55
2022-08-19T21:08:25.761Z,2.50
2022-08-19T21:11:08.402Z,2.58
2022-08-19T21:13:56.271Z,2.13
2022-08-19T21:16:37.382Z,2.53
2022-08-19T21:19:24.431Z,2.30
2022-08-19T21:22:09.352Z,2.83
2022-08-19T21:24:57.708Z,2.10
2022-08-19T21:27:38.418Z,2.45
2022-08-19T21:30:25.777Z,2.55
2022-08-19T21:33:07.392Z,2.38
2022-08-19T21:35:57.008Z,2.28
2022-08-19T21:38:38.821Z,2.30
2022-08-19T21:41:26.275Z,1.90
2022-08-19T21:44:07.398Z,2.30
2022-08-19T21:46:56.712Z,2.38
2022-08-19T21:49:38.544Z,2.33
2022-08-19T21:52:31.709Z,2.30
2022-08-19T21:55:14.392Z,2.58
2022-08-19T21:58:06.274Z,2.25
2022-08-19T22:00:47.809Z,2.50
2022-08-19T22:03:37.560Z,2.22
2022-08-19T22:06:18.940Z,2.10
2022-08-19T22:09:06.268Z,2.10
2022-08-19T22:11:47.471Z,2.20
2022-08-19T22:14:34.686Z,2.20
2022-08-19T22:17:28.295Z,2.33
2022-08-19T22:20:20.348Z,2.67
2022-08-19T22:23:04.939Z,2.63
2022-08-19T22:25:53.311Z,2.00
2022-08-19T22:28:34.390Z,1.90
2022-08-19T22:31:21.791Z,2.70
2022-08-19T22:34:03.804Z,2.70
2022-08-19T22:36:51.378Z,1.92
2022-08-19T22:39:32.435Z,2.72
2022-08-19T22:42:31.786Z,2.20
2022-08-19T22:45:17.458Z,2.05
2022-08-19T22:48:05.082Z,2.50
2022-08-19T22:51:08.387Z,2.20
2022-08-19T22:53:58.828Z,2.50
2022-08-19T22:56:39.990Z,2.60
2022-08-19T22:59:27.356Z,2.47
2022-08-19T23:02:08.414Z,2.13
2022-08-19T23:04:56.311Z,2.17
2022-08-19T23:07:38.005Z,2.40
2022-08-19T23:10:27.257Z,2.63
2022-08-19T23:13:08.485Z,2.60
2022-08-19T23:15:56.716Z,2.17
2022-08-19T23:18:55.958Z,2.65
2022-08-19T23:21:51.096Z,2.90
2022-08-19T23:24:33.439Z,2.42
2022-08-19T23:27:40.414Z,2.42
2022-08-19T23:30:28.087Z,2.20
2022-08-19T23:33:25.731Z,2.90
2022-08-19T23:36:24.844Z,2.58
2022-08-19T23:39:11.337Z,1.75
2022-08-19T23:41:52.871Z,2.13
2022-08-19T23:44:51.386Z,2.72
2022-08-19T23:47:34.206Z,2.30
2022-08-19T23:50:23.924Z,2.38
2022-08-19T23:53:06.625Z,2.10
2022-08-19T23:56:01.363Z,2.63
2022-08-19T23:58:43.450Z,2.10
